Time;durP1;ratioP1;P1;durP2;ratioP2;P2;SDS_P1;SDS_P2;PMS_P1;PMS_P2;Temp;Humidity;BMP_temperature;BMP_pressure;BME280_temperature;BME280_humidity;BME280_pressure;Samples;Min_cycle;Max_cycle;Signal;HPM_P1;HPM_P2
2023/04/02 00:02:59;;;;;;;1.87;1.70;;;;;;;;;;6234862;28;20297;-73
2023/04/02 00:06:32;;;;;;;5.33;1.93;;;;;;;;;;6233963;28;20370;-73
2023/04/02 00:09:39;;;;;;;3.53;1.37;;;;;;;;;;6236866;28;20300;-73
2023/04/02 00:13:00;;;;;;;2.23;1.40;;;;;;;;;;6259482;28;20293;-72
2023/04/02 00:16:07;;;;;;;6.87;1.60;;;;;;;;;;6260256;28;20303;-73
2023/04/02 00:19:18;;;;;;;2.77;1.57;;;;;;;;;;6259530;28;20335;-73
2023/04/02 00:22:27;;;;;;;2.93;1.57;;;;;;;;;;6260189;28;20337;-73
2023/04/02 00:25:41;;;;;;;5.43;1.53;;;;;;;;;;6258779;28;20314;-74
2023/04/02 00:28:46;;;;;;;2.03;1.40;;;;;;;;;;6257714;28;20298;-72
2023/04/02 00:31:53;;;;;;;4.83;1.30;;;;;;;;;;6259786;28;20394;-74
2023/04/02 00:34:58;;;;;;;4.67;1.60;;;;;;;;;;6258717;28;20293;-72
2023/04/02 00:38:05;;;;;;;5.30;1.63;;;;;;;;;;6233298;28;20296;-72
2023/04/02 00:41:17;;;;;;;1.30;1.20;;;;;;;;;;6235119;28;20307;-72
2023/04/02 00:44:22;;;;;;;5.07;1.50;;;;;;;;;;6233371;28;20329;-73
2023/04/02 00:47:33;;;;;;;7.47;1.53;;;;;;;;;;6232781;28;20475;-74
2023/04/02 00:50:41;;;;;;;4.80;1.40;;;;;;;;;;6233566;28;20583;-73
2023/04/02 00:53:47;;;;;;;1.73;1.20;;;;;;;;;;6232842;28;20564;-72
2023/04/02 00:56:56;;;;;;;2.77;1.57;;;;;;;;;;6232957;28;20406;-72
2023/04/02 01:00:10;;;;;;;2.20;1.67;;;;;;;;;;6234096;28;20331;-72
2023/04/02 01:03:34;;;;;;;3.03;1.57;;;;;;;;;;6219862;23;20304;-74
2023/04/02 01:06:42;;;;;;;3.07;1.30;;;;;;;;;;6187298;28;20297;-76
2023/04/02 01:10:04;;;;;;;3.63;1.30;;;;;;;;;;6187961;28;20295;-74
2023/04/02 01:13:23;;;;;;;3.63;1.40;;;;;;;;;;6187043;28;20299;-76
2023/04/02 01:16:36;;;;;;;4.10;1.70;;;;;;;;;;6186077;28;20304;-74
2023/04/02 01:20:26;;;;;;;2.27;1.23;;;;;;;;;;6187382;28;20295;-75
2023/04/02 01:23:35;;;;;;;5.20;1.43;;;;;;;;;;6163083;28;20297;-75
2023/04/02 01:26:47;;;;;;;2.87;1.33;;;;;;;;;;6186430;28;20276;-76
2023/04/02 01:30:02;;;;;;;1.33;1.20;;;;;;;;;;6187302;28;20298;-75
2023/04/02 01:33:07;;;;;;;1.70;1.60;;;;;;;;;;6185865;28;20295;-75
2023/04/02 01:36:16;;;;;;;1.10;1.10;;;;;;;;;;6185812;28;20296;-76
2023/04/02 01:39:33;;;;;;;3.03;1.60;;;;;;;;;;6185612;28;20602;-74
2023/04/02 01:42:42;;;;;;;2.93;1.37;;;;;;;;;;6187373;28;20311;-75
2023/04/02 01:45:48;;;;;;;1.30;1.20;;;;;;;;;;6190550;28;20600;-75
2023/04/02 01:48:53;;;;;;;8.07;1.20;;;;;;;;;;6190052;28;20296;-77
2023/04/02 01:51:59;;;;;;;3.67;1.40;;;;;;;;;;6186028;28;20327;-75
2023/04/02 01:55:13;;;;;;;4.83;1.40;;;;;;;;;;6188114;28;20300;-75
2023/04/02 01:58:20;;;;;;;3.27;1.40;;;;;;;;;;6190090;28;20302;-75
2023/04/02 02:01:31;;;;;;;2.07;1.30;;;;;;;;;;6190482;28;20603;-76
2023/04/02 02:04:36;;;;;;;3.90;1.27;;;;;;;;;;6189321;28;20305;-76
2023/04/02 02:07:44;;;;;;;3.47;1.50;;;;;;;;;;6189993;28;20293;-75
2023/04/02 02:10:52;;;;;;;2.20;1.50;;;;;;;;;;6189941;28;20291;-75
2023/04/02 02:13:58;;;;;;;1.80;1.27;;;;;;;;;;6190599;28;20299;-75
2023/04/02 02:17:17;;;;;;;1.53;1.40;;;;;;;;;;6190248;28;20323;-75
2023/04/02 02:20:23;;;;;;;4.33;1.40;;;;;;;;;;6189491;28;20296;-76
2023/04/02 02:23:29;;;;;;;8.97;1.23;;;;;;;;;;6190988;28;20433;-76
2023/04/02 02:26:35;;;;;;;3.10;1.90;;;;;;;;;;6188752;28;20289;-75
2023/04/02 02:29:42;;;;;;;1.60;1.40;;;;;;;;;;6189262;28;20305;-75
2023/04/02 02:32:54;;;;;;;1.73;1.27;;;;;;;;;;6188928;28;20291;-75
2023/04/02 02:36:01;;;;;;;1.90;1.53;;;;;;;;;;6189704;28;20311;-75
2023/04/02 02:39:16;;;;;;;2.60;1.43;;;;;;;;;;6189067;28;20291;-74
2023/04/02 02:42:30;;;;;;;2.87;1.33;;;;;;;;;;6189209;28;20294;-76
2023/04/02 02:45:38;;;;;;;2.20;1.30;;;;;;;;;;6188840;28;20295;-76
2023/04/02 02:48:45;;;;;;;2.77;1.37;;;;;;;;;;6188932;28;20295;-74
2023/04/02 02:51:57;;;;;;;1.70;1.37;;;;;;;;;;6189490;28;20293;-75
2023/04/02 02:55:12;;;;;;;4.97;1.63;;;;;;;;;;6188890;28;20295;-76
2023/04/02 02:58:27;;;;;;;3.80;1.37;;;;;;;;;;6188768;28;20295;-76
2023/04/02 03:01:50;;;;;;;3.00;1.30;;;;;;;;;;6191533;28;20290;-75
2023/04/02 03:04:58;;;;;;;4.20;1.77;;;;;;;;;;6203512;28;20327;-75
2023/04/02 03:08:09;;;;;;;1.90;1.13;;;;;;;;;;6192529;28;20479;-75
2023/04/02 03:11:21;;;;;;;6.30;1.63;;;;;;;;;;6190219;28;20485;-74
2023/04/02 03:14:34;;;;;;;6.27;1.20;;;;;;;;;;6188010;28;20295;-74
2023/04/02 03:17:43;;;;;;;2.23;1.60;;;;;;;;;;6187548;28;20279;-76
2023/04/02 03:20:55;;;;;;;4.80;1.50;;;;;;;;;;6208293;28;20267;-76
2023/04/02 03:24:04;;;;;;;2.37;1.27;;;;;;;;;;6211742;28;20576;-75
2023/04/02 03:27:13;;;;;;;1.20;1.17;;;;;;;;;;6212441;28;20326;-75
2023/04/02 03:30:28;;;;;;;6.07;1.47;;;;;;;;;;6212101;28;20304;-75
2023/04/02 03:33:38;;;;;;;1.50;1.40;;;;;;;;;;6213396;28;20297;-75
2023/04/02 03:36:52;;;;;;;1.40;1.07;;;;;;;;;;6201304;28;20294;-74
2023/04/02 03:40:03;;;;;;;4.07;1.77;;;;;;;;;;6187760;28;20391;-75
2023/04/02 03:43:15;;;;;;;1.53;1.30;;;;;;;;;;6187584;28;20295;-76
2023/04/02 03:46:26;;;;;;;3.57;1.30;;;;;;;;;;6187980;28;20303;-76
2023/04/02 03:49:36;;;;;;;3.40;1.50;;;;;;;;;;6187570;28;20294;-75
2023/04/02 03:52:43;;;;;;;1.73;1.63;;;;;;;;;;6187537;28;20308;-76
2023/04/02 03:55:51;;;;;;;5.93;1.50;;;;;;;;;;6187533;28;20600;-75
2023/04/02 03:59:04;;;;;;;1.23;1.23;;;;;;;;;;6171884;28;20306;-75
2023/04/02 04:02:19;;;;;;;3.53;1.37;;;;;;;;;;6187307;28;20605;-76
2023/04/02 04:05:28;;;;;;;1.43;1.40;;;;;;;;;;6188604;28;20297;-76
2023/04/02 04:08:43;;;;;;;4.37;1.40;;;;;;;;;;6186370;28;20299;-74
2023/04/02 04:11:51;;;;;;;2.97;1.60;;;;;;;;;;6192200;28;20267;-75
2023/04/02 04:15:01;;;;;;;2.93;1.70;;;;;;;;;;6187231;28;20299;-75
2023/04/02 04:18:10;;;;;;;3.43;1.60;;;;;;;;;;6186456;28;20471;-75
2023/04/02 04:21:28;;;;;;;2.17;1.20;;;;;;;;;;6187417;28;20304;-74
2023/04/02 04:24:45;;;;;;;1.43;1.33;;;;;;;;;;6186904;28;20609;-76
2023/04/02 04:28:06;;;;;;;6.20;1.60;;;;;;;;;;6186793;28;20356;-76
2023/04/02 04:31:19;;;;;;;2.40;1.30;;;;;;;;;;6186810;28;20301;-74
2023/04/02 04:34:35;;;;;;;2.40;1.40;;;;;;;;;;6186508;28;20299;-75
2023/04/02 04:37:42;;;;;;;4.23;1.83;;;;;;;;;;6186332;28;20311;-75
2023/04/02 04:40:53;;;;;;;1.60;1.50;;;;;;;;;;6187040;28;20290;-74
2023/04/02 04:44:08;;;;;;;1.93;1.43;;;;;;;;;;6186395;28;20304;-76
2023/04/02 04:47:17;;;;;;;1.30;1.20;;;;;;;;;;6186954;28;20296;-76
2023/04/02 04:50:29;;;;;;;3.77;1.40;;;;;;;;;;6185811;28;20306;-76
2023/04/02 04:53:34;;;;;;;4.47;1.50;;;;;;;;;;6185441;28;20297;-75
2023/04/02 04:56:44;;;;;;;1.70;1.60;;;;;;;;;;6188221;28;20290;-74
2023/04/02 04:59:55;;;;;;;4.53;1.83;;;;;;;;;;6186065;28;20294;-74
2023/04/02 05:03:05;;;;;;;2.30;1.40;;;;;;;;;;6187394;28;20302;-76
2023/04/02 05:06:17;;;;;;;2.53;1.60;;;;;;;;;;6186555;28;20294;-76
2023/04/02 05:09:37;;;;;;;5.47;1.50;;;;;;;;;;6186192;28;20312;-75
2023/04/02 05:12:48;;;;;;;1.47;1.37;;;;;;;;;;6207485;28;20302;-75
2023/04/02 05:15:59;;;;;;;4.83;1.70;;;;;;;;;;6210869;28;20395;-76
2023/04/02 05:19:08;;;;;;;3.37;1.30;;;;;;;;;;6210063;28;20615;-76
2023/04/02 05:22:20;;;;;;;4.07;1.60;;;;;;;;;;6210105;28;20307;-75
2023/04/02 05:25:28;;;;;;;6.87;1.90;;;;;;;;;;6209645;28;20298;-75
2023/04/02 05:28:43;;;;;;;4.67;1.43;;;;;;;;;;6211031;28;20296;-75
2023/04/02 05:31:53;;;;;;;1.60;1.50;;;;;;;;;;6215465;28;20574;-75
2023/04/02 05:35:04;;;;;;;2.67;1.50;;;;;;;;;;6215129;28;20295;-75
2023/04/02 05:38:19;;;;;;;1.50;1.40;;;;;;;;;;6214429;28;20300;-76
2023/04/02 05:41:27;;;;;;;1.67;1.47;;;;;;;;;;6215200;28;20619;-75
2023/04/02 05:44:37;;;;;;;4.17;1.70;;;;;;;;;;6213086;28;20481;-75
2023/04/02 05:47:44;;;;;;;2.70;1.70;;;;;;;;;;6214319;28;20276;-75
2023/04/02 05:50:58;;;;;;;2.67;1.50;;;;;;;;;;6215118;28;20543;-76
2023/04/02 05:54:21;;;;;;;1.97;1.70;;;;;;;;;;6214358;28;20290;-74
2023/04/02 05:57:35;;;;;;;2.57;1.40;;;;;;;;;;6213942;28;20324;-75
2023/04/02 06:01:03;;;;;;;2.70;1.60;;;;;;;;;;6198646;28;20298;-75
2023/04/02 06:04:15;;;;;;;2.17;1.90;;;;;;;;;;6213471;28;20483;-75
2023/04/02 06:07:23;;;;;;;2.40;1.73;;;;;;;;;;6215810;28;20300;-76
2023/04/02 06:10:35;;;;;;;2.23;1.53;;;;;;;;;;6210541;28;20326;-74
2023/04/02 06:13:40;;;;;;;3.47;1.97;;;;;;;;;;6213709;28;20296;-75
2023/04/02 06:16:47;;;;;;;5.37;1.63;;;;;;;;;;6215479;28;20319;-74
2023/04/02 06:19:54;;;;;;;7.13;1.90;;;;;;;;;;6213491;28;20303;-76
2023/04/02 06:23:01;;;;;;;6.00;1.70;;;;;;;;;;6214034;28;20471;-77
2023/04/02 06:26:15;;;;;;;2.93;1.80;;;;;;;;;;6213891;28;20588;-76
2023/04/02 06:29:26;;;;;;;1.90;1.80;;;;;;;;;;6213670;28;20580;-75
2023/04/02 06:32:34;;;;;;;3.80;1.80;;;;;;;;;;6212244;28;20453;-76
2023/04/02 06:35:45;;;;;;;4.37;1.93;;;;;;;;;;6214022;28;20277;-76
2023/04/02 06:38:55;;;;;;;1.90;1.80;;;;;;;;;;6213392;28;20482;-77
2023/04/02 06:42:03;;;;;;;2.13;1.87;;;;;;;;;;6215321;28;20334;-74
2023/04/02 06:45:31;;;;;;;3.40;1.70;;;;;;;;;;6214155;28;20593;-76
2023/04/02 06:48:59;;;;;;;2.50;2.03;;;;;;;;;;6212796;28;20299;-74
2023/04/02 06:52:08;;;;;;;3.03;1.87;;;;;;;;;;6214823;28;20305;-76
2023/04/02 06:55:33;;;;;;;3.23;1.67;;;;;;;;;;6212908;28;20306;-75
2023/04/02 06:58:38;;;;;;;1.40;1.40;;;;;;;;;;6212895;28;20298;-76
2023/04/02 07:01:47;;;;;;;5.70;2.00;;;;;;;;;;6212789;28;20298;-76
2023/04/02 07:04:56;;;;;;;2.80;2.13;;;;;;;;;;6212656;28;20412;-77
2023/04/02 07:08:01;;;;;;;1.57;1.50;;;;;;;;;;6212792;28;20295;-76
2023/04/02 07:11:07;;;;;;;3.27;1.70;;;;;;;;;;6210406;28;20293;-76
2023/04/02 07:14:12;;;;;;;5.83;1.60;;;;;;;;;;6212698;28;20421;-76
2023/04/02 07:17:19;;;;;;;5.47;1.60;;;;;;;;;;6198748;28;20297;-77
2023/04/02 07:20:31;;;;;;;2.00;1.33;;;;;;;;;;6165593;28;20294;-76
2023/04/02 07:23:40;;;;;;;3.63;1.40;;;;;;;;;;6163605;28;20303;-75
2023/04/02 07:26:46;;;;;;;10.13;1.70;;;;;;;;;;6165741;28;20275;-75
2023/04/02 07:29:52;;;;;;;5.33;1.93;;;;;;;;;;6165207;28;20313;-76
2023/04/02 07:32:57;;;;;;;4.80;1.77;;;;;;;;;;6165409;28;20290;-77
2023/04/02 07:36:04;;;;;;;12.40;1.70;;;;;;;;;;6165662;28;20470;-76
2023/04/02 07:39:11;;;;;;;2.50;1.73;;;;;;;;;;6164535;28;20298;-75
2023/04/02 07:42:16;;;;;;;3.93;1.60;;;;;;;;;;6165401;28;20297;-75
2023/04/02 07:45:21;;;;;;;4.60;1.60;;;;;;;;;;6165313;28;20302;-77
2023/04/02 07:48:26;;;;;;;6.80;1.70;;;;;;;;;;6164660;28;20326;-76
2023/04/02 07:51:32;;;;;;;2.03;1.60;;;;;;;;;;6164377;28;20300;-78
2023/04/02 07:54:38;;;;;;;4.47;2.43;;;;;;;;;;6164928;28;20323;-77
2023/04/02 07:57:49;;;;;;;2.77;1.63;;;;;;;;;;6164234;28;20297;-78
2023/04/02 08:00:54;;;;;;;4.83;1.70;;;;;;;;;;6165197;28;20300;-78
2023/04/02 08:04:00;;;;;;;1.97;1.50;;;;;;;;;;6164512;28;20292;-77
2023/04/02 08:07:06;;;;;;;4.67;1.87;;;;;;;;;;6165109;28;20297;-78
2023/04/02 08:10:12;;;;;;;8.37;1.87;;;;;;;;;;6172786;28;20296;-80
2023/04/02 08:13:18;;;;;;;7.03;1.83;;;;;;;;;;6188822;28;20297;-76
2023/04/02 08:16:24;;;;;;;9.33;1.93;;;;;;;;;;6188818;28;20297;-77
2023/04/02 08:19:29;;;;;;;5.00;1.30;;;;;;;;;;6188394;28;20300;-77
2023/04/02 08:22:38;;;;;;;4.40;1.87;;;;;;;;;;6188206;28;20608;-76
2023/04/02 08:25:44;;;;;;;11.00;2.03;;;;;;;;;;6188495;28;20296;-76
2023/04/02 08:28:49;;;;;;;13.10;2.03;;;;;;;;;;6188031;28;20297;-75
2023/04/02 08:31:55;;;;;;;5.10;1.63;;;;;;;;;;6188402;28;20597;-76
2023/04/02 08:35:01;;;;;;;4.57;2.70;;;;;;;;;;6188159;28;20304;-76
2023/04/02 08:38:08;;;;;;;11.47;3.07;;;;;;;;;;6187870;28;20480;-76
2023/04/02 08:41:20;;;;;;;13.10;3.37;;;;;;;;;;6188310;28;20297;-75
2023/04/02 08:44:37;;;;;;;7.53;2.37;;;;;;;;;;6187974;28;20301;-76
2023/04/02 08:47:46;;;;;;;4.40;2.70;;;;;;;;;;6186542;28;20300;-78
2023/04/02 08:50:51;;;;;;;4.23;1.87;;;;;;;;;;6188125;28;20464;-76
2023/04/02 08:54:02;;;;;;;16.93;5.33;;;;;;;;;;6187573;28;20293;-77
2023/04/02 08:57:11;;;;;;;2.63;2.00;;;;;;;;;;6188383;28;20486;-77
2023/04/02 09:00:27;;;;;;;3.57;1.73;;;;;;;;;;6187156;28;20308;-76
2023/04/02 09:03:36;;;;;;;7.87;1.97;;;;;;;;;;6187023;28;20578;-76
2023/04/02 09:06:43;;;;;;;1.90;1.80;;;;;;;;;;6186604;28;20596;-76
2023/04/02 09:09:50;;;;;;;2.80;1.97;;;;;;;;;;6187509;28;20295;-76
2023/04/02 09:12:57;;;;;;;2.20;1.87;;;;;;;;;;6163338;28;20296;-75
2023/04/02 09:16:06;;;;;;;7.17;1.97;;;;;;;;;;6163218;28;20306;-75
2023/04/02 09:19:17;;;;;;;6.40;2.10;;;;;;;;;;6164239;28;20297;-76
2023/04/02 09:22:24;;;;;;;5.27;1.70;;;;;;;;;;6164128;28;20297;-76
2023/04/02 09:25:32;;;;;;;3.43;1.90;;;;;;;;;;6166906;28;20302;-76
2023/04/02 09:28:38;;;;;;;1.63;1.57;;;;;;;;;;6163194;28;20301;-75
2023/04/02 09:31:45;;;;;;;3.40;1.60;;;;;;;;;;6163424;28;20301;-76
2023/04/02 09:34:51;;;;;;;2.43;1.57;;;;;;;;;;6164183;28;20299;-77
2023/04/02 09:38:19;;;;;;;3.23;1.60;;;;;;;;;;6163050;28;20313;-76
2023/04/02 09:41:29;;;;;;;1.60;1.50;;;;;;;;;;6163304;28;20293;-74
2023/04/02 09:44:34;;;;;;;1.60;1.50;;;;;;;;;;6162680;28;20282;-75
2023/04/02 09:47:40;;;;;;;3.83;1.50;;;;;;;;;;6161678;28;20305;-76
2023/04/02 09:50:46;;;;;;;1.40;1.40;;;;;;;;;;6162973;28;20278;-76
2023/04/02 09:54:05;;;;;;;3.23;1.70;;;;;;;;;;6161513;28;20293;-78
2023/04/02 09:57:22;;;;;;;1.97;1.50;;;;;;;;;;6161439;28;20483;-77
2023/04/02 10:00:28;;;;;;;3.27;1.53;;;;;;;;;;6162949;28;20610;-78
2023/04/02 10:03:37;;;;;;;3.13;1.70;;;;;;;;;;6162186;28;20299;-76
2023/04/02 10:06:52;;;;;;;1.67;1.50;;;;;;;;;;6162926;28;20309;-79
2023/04/02 10:10:00;;;;;;;1.60;1.50;;;;;;;;;;6169430;28;20493;-78
2023/04/02 10:13:09;;;;;;;2.93;1.70;;;;;;;;;;6187220;28;20305;-78
2023/04/02 10:16:17;;;;;;;3.60;2.00;;;;;;;;;;6189816;28;20301;-77
2023/04/02 10:19:27;;;;;;;4.80;2.07;;;;;;;;;;6191746;28;20305;-78
2023/04/02 10:22:33;;;;;;;3.13;1.93;;;;;;;;;;6189524;28;20297;-77
2023/04/02 10:25:44;;;;;;;2.43;1.83;;;;;;;;;;6192162;28;20616;-77
2023/04/02 10:29:03;;;;;;;2.93;1.40;;;;;;;;;;6191421;28;20390;-77
2023/04/02 10:32:16;;;;;;;1.60;1.50;;;;;;;;;;6191708;28;20301;-77
2023/04/02 10:35:31;;;;;;;2.40;1.40;;;;;;;;;;6193611;28;20606;-75
2023/04/02 10:38:41;;;;;;;1.37;1.30;;;;;;;;;;6191673;28;20380;-77
2023/04/02 10:41:52;;;;;;;2.53;1.40;;;;;;;;;;6191382;28;20299;-75
2023/04/02 10:45:02;;;;;;;1.80;1.50;;;;;;;;;;6191475;28;20299;-76
2023/04/02 10:48:12;;;;;;;6.47;1.30;;;;;;;;;;6190508;28;20304;-75
2023/04/02 10:51:32;;;;;;;15.03;1.40;;;;;;;;;;6190712;28;20558;-76
2023/04/02 10:54:43;;;;;;;4.80;1.00;;;;;;;;;;6190404;28;20306;-76
2023/04/02 10:57:48;;;;;;;3.20;0.93;;;;;;;;;;6190732;28;20299;-77
2023/04/02 11:00:58;;;;;;;0.70;0.70;;;;;;;;;;6189951;28;20480;-77
2023/04/02 11:04:07;;;;;;;1.10;1.00;;;;;;;;;;6188608;28;20474;-77
2023/04/02 11:07:17;;;;;;;2.10;1.23;;;;;;;;;;6188626;28;20287;-77
2023/04/02 11:10:22;;;;;;;1.10;1.10;;;;;;;;;;6193284;28;20295;-76
2023/04/02 11:13:30;;;;;;;0.60;0.60;;;;;;;;;;6189638;28;20301;-76
2023/04/02 11:16:37;;;;;;;1.30;0.90;;;;;;;;;;6190013;28;20305;-76
2023/04/02 11:19:48;;;;;;;1.80;1.00;;;;;;;;;;6190489;28;20383;-77
2023/04/02 11:23:06;;;;;;;1.33;1.03;;;;;;;;;;6190021;28;20482;-78
2023/04/02 11:26:46;;;;;;;1.00;1.00;;;;;;;;;;6188499;28;20416;-76
2023/04/02 11:29:55;;;;;;;2.10;0.90;;;;;;;;;;6189191;28;20281;-79
2023/04/02 11:33:25;;;;;;;1.97;1.30;;;;;;;;;;6191521;28;20303;-76
2023/04/02 11:37:02;;;;;;;1.40;1.40;;;;;;;;;;6189487;28;20476;-77
2023/04/02 11:40:46;;;;;;;2.57;1.10;;;;;;;;;;6189531;28;20307;-76
2023/04/02 11:43:56;;;;;;;4.60;1.03;;;;;;;;;;6189308;28;20297;-77
2023/04/02 11:47:18;;;;;;;3.30;1.00;;;;;;;;;;6188848;28;20304;-78
2023/04/02 11:50:33;;;;;;;1.20;1.10;;;;;;;;;;6189515;28;20291;-77
2023/04/02 11:53:43;;;;;;;3.83;1.10;;;;;;;;;;6188787;28;20304;-76
2023/04/02 11:56:53;;;;;;;1.77;1.00;;;;;;;;;;6191069;28;20319;-76
2023/04/02 12:00:12;;;;;;;1.33;1.00;;;;;;;;;;6192182;28;20293;-78
2023/04/02 12:03:40;;;;;;;3.60;1.00;;;;;;;;;;6191015;28;20302;-76
2023/04/02 12:06:53;;;;;;;1.00;1.00;;;;;;;;;;6189665;28;20295;-77
2023/04/02 12:10:00;;;;;;;3.90;1.20;;;;;;;;;;6192167;28;20290;-78
2023/04/02 12:13:05;;;;;;;1.23;1.17;;;;;;;;;;6189157;28;20299;-76
2023/04/02 12:16:13;;;;;;;1.07;1.00;;;;;;;;;;6188546;28;20315;-75
2023/04/02 12:19:19;;;;;;;2.93;1.10;;;;;;;;;;6189160;28;20583;-76
2023/04/02 12:22:28;;;;;;;1.40;1.40;;;;;;;;;;6188674;28;20303;-77
2023/04/02 12:25:39;;;;;;;4.20;1.00;;;;;;;;;;6188496;28;20291;-76
2023/04/02 12:28:45;;;;;;;4.27;1.47;;;;;;;;;;6188656;28;20474;-77
2023/04/02 12:31:50;;;;;;;1.07;1.07;;;;;;;;;;6188023;28;20550;-78
2023/04/02 12:34:56;;;;;;;1.53;1.00;;;;;;;;;;6188768;28;20304;-79
2023/04/02 12:38:03;;;;;;;1.73;1.10;;;;;;;;;;6187450;28;20307;-79
2023/04/02 12:41:29;;;;;;;3.43;1.10;;;;;;;;;;6187368;28;20296;-80
2023/04/02 12:44:34;;;;;;;2.47;1.27;;;;;;;;;;6187666;28;20448;-78
2023/04/02 12:47:45;;;;;;;1.00;1.00;;;;;;;;;;6191917;28;20589;-81
2023/04/02 12:50:51;;;;;;;0.90;0.90;;;;;;;;;;6191955;28;20272;-77
2023/04/02 12:53:57;;;;;;;2.33;1.47;;;;;;;;;;6190041;28;20287;-76
2023/04/02 12:57:30;;;;;;;1.30;1.20;;;;;;;;;;6187509;28;20299;-73
2023/04/02 13:00:36;;;;;;;3.30;1.30;;;;;;;;;;6188354;28;20305;-76
2023/04/02 13:03:42;;;;;;;1.10;1.10;;;;;;;;;;6187475;28;20306;-76
2023/04/02 13:06:50;;;;;;;1.20;1.20;;;;;;;;;;6187443;28;20299;-76
2023/04/02 13:09:59;;;;;;;3.83;1.10;;;;;;;;;;6190934;28;20565;-78
2023/04/02 13:13:05;;;;;;;1.23;1.23;;;;;;;;;;6211482;28;20310;-76
2023/04/02 13:16:26;;;;;;;1.20;1.10;;;;;;;;;;6211601;28;20340;-76
2023/04/02 13:19:32;;;;;;;2.13;0.90;;;;;;;;;;6212016;28;20291;-78
2023/04/02 13:22:37;;;;;;;1.13;0.90;;;;;;;;;;6210035;28;20312;-76
2023/04/02 13:25:43;;;;;;;1.00;1.00;;;;;;;;;;6211737;28;20303;-77
2023/04/02 13:28:59;;;;;;;1.80;1.00;;;;;;;;;;6211716;28;20483;-76
2023/04/02 13:32:06;;;;;;;1.30;1.20;;;;;;;;;;6211487;28;20342;-76
2023/04/02 13:35:13;;;;;;;2.30;1.27;;;;;;;;;;6212095;28;20294;-77
2023/04/02 13:38:19;;;;;;;4.73;1.10;;;;;;;;;;6211554;28;20314;-77
2023/04/02 13:41:27;;;;;;;0.80;0.80;;;;;;;;;;6213398;28;20299;-76
2023/04/02 13:44:33;;;;;;;1.33;0.80;;;;;;;;;;6210570;28;20306;-75
2023/04/02 13:47:39;;;;;;;1.00;1.00;;;;;;;;;;6210174;28;20294;-77
2023/04/02 13:50:45;;;;;;;1.60;0.70;;;;;;;;;;6213408;28;20280;-76
2023/04/02 13:53:54;;;;;;;0.93;0.93;;;;;;;;;;6215751;28;20303;-75
2023/04/02 13:57:00;;;;;;;1.70;1.03;;;;;;;;;;6215880;28;20569;-77
2023/04/02 14:00:07;;;;;;;1.00;1.00;;;;;;;;;;6216423;28;20307;-78
2023/04/02 14:03:18;;;;;;;3.20;1.10;;;;;;;;;;6215899;28;20298;-75
2023/04/02 14:06:28;;;;;;;2.07;1.20;;;;;;;;;;6215755;28;20432;-76
2023/04/02 14:09:41;;;;;;;2.33;1.00;;;;;;;;;;6215078;28;20293;-76
2023/04/02 14:12:59;;;;;;;1.27;1.17;;;;;;;;;;6214834;28;20306;-79
2023/04/02 14:16:24;;;;;;;1.40;1.30;;;;;;;;;;6215690;28;20305;-78
2023/04/02 14:19:45;;;;;;;2.30;1.10;;;;;;;;;;6216180;28;20293;-75
2023/04/02 14:23:03;;;;;;;1.23;1.17;;;;;;;;;;6215814;28;20296;-78
2023/04/02 14:26:13;;;;;;;1.37;1.37;;;;;;;;;;6215383;28;20448;-76
2023/04/02 14:29:24;;;;;;;2.40;1.20;;;;;;;;;;6215849;28;20316;-76
2023/04/02 14:32:39;;;;;;;1.67;1.00;;;;;;;;;;6214504;28;20301;-77
2023/04/02 14:35:46;;;;;;;1.83;1.00;;;;;;;;;;6214890;28;20276;-80
2023/04/02 14:38:56;;;;;;;1.33;1.23;;;;;;;;;;6215512;28;20300;-78
2023/04/02 14:42:04;;;;;;;2.53;1.33;;;;;;;;;;6214909;28;20297;-78
2023/04/02 14:45:22;;;;;;;1.47;0.90;;;;;;;;;;6214980;28;20291;-77
2023/04/02 14:48:36;;;;;;;4.63;0.93;;;;;;;;;;6213976;28;20303;-77
2023/04/02 14:51:45;;;;;;;1.87;0.93;;;;;;;;;;6215201;28;20297;-76
2023/04/02 14:54:53;;;;;;;1.93;0.90;;;;;;;;;;6215005;28;20483;-78
2023/04/02 14:58:03;;;;;;;1.10;1.10;;;;;;;;;;6215017;28;20297;-78
2023/04/02 15:01:12;;;;;;;3.80;1.30;;;;;;;;;;6213311;28;20296;-77
2023/04/02 15:04:20;;;;;;;3.87;1.10;;;;;;;;;;6214780;28;20301;-78
2023/04/02 15:07:29;;;;;;;2.27;1.50;;;;;;;;;;6214500;28;20290;-79
2023/04/02 15:10:36;;;;;;;3.23;1.30;;;;;;;;;;6211863;28;20292;-77
2023/04/02 15:13:47;;;;;;;1.17;1.17;;;;;;;;;;6213722;28;20613;-77
2023/04/02 15:16:53;;;;;;;3.37;0.93;;;;;;;;;;6214202;28;20300;-78
2023/04/02 15:20:06;;;;;;;1.07;1.00;;;;;;;;;;6214471;28;20304;-77
2023/04/02 15:23:19;;;;;;;2.23;1.40;;;;;;;;;;6213326;28;20305;-78
2023/04/02 15:26:29;;;;;;;1.53;1.43;;;;;;;;;;6213769;28;20294;-78
2023/04/02 15:29:44;;;;;;;1.57;1.37;;;;;;;;;;6213654;28;20276;-76
2023/04/02 15:32:51;;;;;;;1.80;1.70;;;;;;;;;;6212406;28;20299;-77
2023/04/02 15:36:01;;;;;;;1.40;1.30;;;;;;;;;;6213548;28;20293;-78
2023/04/02 15:39:30;;;;;;;1.17;1.17;;;;;;;;;;6213231;28;20292;-77
2023/04/02 15:42:39;;;;;;;1.50;1.40;;;;;;;;;;6211843;28;20293;-78
2023/04/02 15:45:51;;;;;;;6.97;1.60;;;;;;;;;;6212444;28;20296;-76
2023/04/02 15:49:13;;;;;;;1.00;0.90;;;;;;;;;;6214516;28;20293;-77
2023/04/02 15:52:21;;;;;;;1.33;1.23;;;;;;;;;;6214299;28;20310;-78
2023/04/02 15:55:35;;;;;;;3.40;1.30;;;;;;;;;;6214295;28;20299;-78
2023/04/02 15:59:03;;;;;;;3.30;1.23;;;;;;;;;;6213118;28;20297;-76
2023/04/02 16:02:28;;;;;;;1.30;1.10;;;;;;;;;;6198833;28;20311;-78
2023/04/02 16:05:39;;;;;;;0.90;0.90;;;;;;;;;;6212236;28;20438;-77
2023/04/02 16:08:55;;;;;;;3.70;1.17;;;;;;;;;;6212946;28;20320;-77
2023/04/02 16:12:11;;;;;;;2.10;1.40;;;;;;;;;;6207929;28;20289;-79
2023/04/02 16:15:22;;;;;;;1.73;1.10;;;;;;;;;;6213113;28;20300;-76
2023/04/02 16:18:34;;;;;;;1.47;1.30;;;;;;;;;;6212668;28;20297;-78
2023/04/02 16:21:45;;;;;;;3.53;1.50;;;;;;;;;;6212533;28;20586;-78
2023/04/02 16:24:56;;;;;;;1.27;1.13;;;;;;;;;;6212888;28;20303;-78
2023/04/02 16:28:07;;;;;;;3.60;1.27;;;;;;;;;;6212641;28;20497;-75
2023/04/02 16:31:17;;;;;;;5.80;1.00;;;;;;;;;;6211538;28;20320;-78
2023/04/02 16:34:32;;;;;;;0.97;0.97;;;;;;;;;;6213088;28;20488;-78
2023/04/02 16:37:42;;;;;;;0.87;0.87;;;;;;;;;;6212170;28;20295;-77
2023/04/02 16:40:53;;;;;;;1.33;1.20;;;;;;;;;;6212877;28;20301;-77
2023/04/02 16:44:23;;;;;;;1.10;1.10;;;;;;;;;;6211740;28;20307;-76
2023/04/02 16:47:46;;;;;;;0.90;0.90;;;;;;;;;;6212034;28;20493;-76
2023/04/02 16:50:59;;;;;;;1.33;1.30;;;;;;;;;;6211628;28;20290;-76
2023/04/02 16:54:10;;;;;;;3.40;1.40;;;;;;;;;;6211753;28;20301;-77
2023/04/02 16:57:24;;;;;;;2.77;1.67;;;;;;;;;;6212403;28;20304;-78
2023/04/02 17:00:36;;;;;;;3.00;1.37;;;;;;;;;;6212387;28;20294;-77
2023/04/02 17:03:56;;;;;;;1.67;1.57;;;;;;;;;;6210132;28;20289;-76
2023/04/02 17:07:10;;;;;;;3.03;1.30;;;;;;;;;;6211894;28;20409;-78
2023/04/02 17:10:30;;;;;;;1.30;1.30;;;;;;;;;;6209362;28;20322;-78
2023/04/02 17:13:40;;;;;;;2.00;1.47;;;;;;;;;;6212136;28;20297;-76
2023/04/02 17:16:47;;;;;;;1.40;1.30;;;;;;;;;;6212231;28;20308;-77
2023/04/02 17:19:56;;;;;;;1.40;1.40;;;;;;;;;;6212838;28;20297;-76
2023/04/02 17:23:02;;;;;;;4.53;1.30;;;;;;;;;;6211745;28;20326;-77
2023/04/02 17:26:14;;;;;;;2.70;1.50;;;;;;;;;;6215704;28;20302;-78
2023/04/02 17:29:24;;;;;;;4.27;1.33;;;;;;;;;;6216715;28;20299;-78
2023/04/02 17:32:31;;;;;;;3.53;1.53;;;;;;;;;;6216167;28;20301;-79
2023/04/02 17:35:44;;;;;;;1.57;1.37;;;;;;;;;;6216275;28;20278;-77
2023/04/02 17:38:54;;;;;;;2.90;1.70;;;;;;;;;;6216597;28;20317;-79
2023/04/02 17:42:09;;;;;;;2.40;1.13;;;;;;;;;;6216319;28;20294;-78
2023/04/02 17:45:19;;;;;;;2.43;1.53;;;;;;;;;;6216328;28;20295;-78
2023/04/02 17:48:30;;;;;;;3.90;1.90;;;;;;;;;;6216547;28;20289;-79
2023/04/02 17:51:39;;;;;;;2.90;2.70;;;;;;;;;;6216515;28;20294;-79
2023/04/02 17:54:54;;;;;;;4.80;1.63;;;;;;;;;;6216481;28;20300;-78
2023/04/02 17:58:06;;;;;;;5.17;2.93;;;;;;;;;;6216686;28;20606;-79
2023/04/02 18:01:14;;;;;;;2.30;1.50;;;;;;;;;;6218435;28;20303;-79
2023/04/02 18:04:29;;;;;;;2.33;1.70;;;;;;;;;;6216529;28;20292;-78
2023/04/02 18:07:39;;;;;;;3.33;1.70;;;;;;;;;;6216347;28;20357;-79
2023/04/02 18:10:55;;;;;;;7.73;1.80;;;;;;;;;;6213547;28;20470;-78
2023/04/02 18:14:14;;;;;;;4.13;1.50;;;;;;;;;;6215442;28;20316;-78
2023/04/02 18:17:25;;;;;;;3.87;1.53;;;;;;;;;;6218023;28;20306;-79
2023/04/02 18:20:34;;;;;;;2.93;1.50;;;;;;;;;;6218153;28;20296;-77
2023/04/02 18:23:49;;;;;;;3.70;1.40;;;;;;;;;;6217006;28;20628;-80
2023/04/02 18:27:01;;;;;;;1.87;1.53;;;;;;;;;;6217138;28;20296;-79
2023/04/02 18:30:15;;;;;;;1.60;1.50;;;;;;;;;;6218217;28;20291;-80
2023/04/02 18:33:50;;;;;;;2.23;1.33;;;;;;;;;;6216440;28;20605;-79
2023/04/02 18:37:01;;;;;;;1.60;1.40;;;;;;;;;;6216250;28;20288;-79
2023/04/02 18:40:22;;;;;;;3.33;1.60;;;;;;;;;;6216786;28;20327;-79
2023/04/02 18:43:40;;;;;;;3.27;1.60;;;;;;;;;;6216911;28;20305;-79
2023/04/02 18:46:51;;;;;;;3.60;1.67;;;;;;;;;;6215387;28;20292;-78
2023/04/02 18:50:10;;;;;;;4.40;1.20;;;;;;;;;;6217332;28;20296;-77
2023/04/02 18:53:18;;;;;;;2.23;1.60;;;;;;;;;;6216415;28;20300;-78
2023/04/02 18:56:24;;;;;;;1.70;1.70;;;;;;;;;;6216578;28;20300;-80
2023/04/02 18:59:35;;;;;;;2.80;1.70;;;;;;;;;;6215941;28;20301;-79
2023/04/02 19:02:44;;;;;;;2.90;1.50;;;;;;;;;;6216171;28;20311;-80
2023/04/02 19:05:52;;;;;;;1.40;1.40;;;;;;;;;;6219762;28;20308;-79
2023/04/02 19:09:00;;;;;;;4.70;1.47;;;;;;;;;;6217800;28;20289;-78